Time;durP1;ratioP1;P1;durP2;ratioP2;P2;SDS_P1;SDS_P2;PMS_P1;PMS_P2;Temp;Humidity;BMP_temperature;BMP_pressure;BME280_temperature;BME280_humidity;BME280_pressure;Samples;Min_cycle;Max_cycle;Signal;HPM_P1;HPM_P2
2021/03/16 00:00:11;;;;;;;13.43;9.23;;;;;;;1.55;100.00;95885.22;1284503;23;20008;-70
2021/03/16 00:00:41;;;;;;;13.68;8.95;;;;;;;1.55;100.00;95891.28;1284454;23;20403;-70
2021/03/16 00:01:11;;;;;;;13.30;8.93;;;;;;;1.54;100.00;95892.31;1284281;23;20001;-70
2021/03/16 00:01:42;;;;;;;11.13;8.40;;;;;;;1.55;100.00;95886.00;1284056;23;20307;-71
2021/03/16 00:02:12;;;;;;;13.90;9.40;;;;;;;1.55;100.00;95888.66;1284829;23;20446;-70
2021/03/16 00:02:43;;;;;;;11.97;9.17;;;;;;;1.55;100.00;95890.47;1284824;23;20000;-71
2021/03/16 00:03:13;;;;;;;11.43;8.60;;;;;;;1.54;100.00;95887.03;1284885;23;20363;-71
2021/03/16 00:03:44;;;;;;;12.07;8.30;;;;;;;1.55;100.00;95891.28;1284362;23;20001;-70
2021/03/16 00:04:15;;;;;;;12.40;9.50;;;;;;;1.55;100.00;95895.75;1284479;23;20003;-71
2021/03/16 00:04:46;;;;;;;13.10;9.18;;;;;;;1.54;100.00;95894.94;1284425;23;19989;-70
2021/03/16 00:05:16;;;;;;;13.50;9.57;;;;;;;1.55;100.00;95893.91;1284458;23;20008;-71
2021/03/16 00:05:47;;;;;;;14.77;9.63;;;;;;;1.56;100.00;95897.34;1284736;23;19996;-71
2021/03/16 00:06:17;;;;;;;11.77;8.57;;;;;;;1.56;100.00;95895.53;1284782;23;20012;-71
2021/03/16 00:06:47;;;;;;;13.13;9.23;;;;;;;1.56;100.00;95889.44;1284763;23;20019;-71
2021/03/16 00:07:19;;;;;;;11.30;8.73;;;;;;;1.53;100.00;95893.31;1284458;23;20088;-71
2021/03/16 00:07:49;;;;;;;12.15;8.75;;;;;;;1.54;100.00;95896.78;1284389;23;20024;-70
2021/03/16 00:08:20;;;;;;;12.37;9.80;;;;;;;1.52;100.00;95894.34;1278246;23;20012;-70
2021/03/16 00:08:50;;;;;;;14.03;8.43;;;;;;;1.52;100.00;95894.34;1272437;23;20005;-70
2021/03/16 00:09:21;;;;;;;12.63;9.97;;;;;;;1.53;100.00;95901.22;1278289;23;20001;-70
2021/03/16 00:09:51;;;;;;;12.77;8.83;;;;;;;1.51;100.00;95900.63;1278269;23;19997;-71
2021/03/16 00:10:22;;;;;;;15.43;9.27;;;;;;;1.53;100.00;95898.56;1284497;23;20024;-70
2021/03/16 00:10:52;;;;;;;12.10;8.40;;;;;;;1.55;100.00;95904.47;1284851;23;19997;-70
2021/03/16 00:11:22;;;;;;;11.10;8.63;;;;;;;1.58;100.00;95910.31;1284914;23;20000;-71
2021/03/16 00:11:53;;;;;;;14.10;9.20;;;;;;;1.53;100.00;95895.94;1290726;23;20292;-71
2021/03/16 00:12:23;;;;;;;12.13;8.57;;;;;;;1.53;100.00;95905.66;1290836;23;20406;-71
2021/03/16 00:12:54;;;;;;;14.13;9.00;;;;;;;1.52;100.00;95904.06;1284514;23;20000;-71
2021/03/16 00:13:24;;;;;;;11.90;8.50;;;;;;;1.52;100.00;95904.88;1284427;23;20009;-71
2021/03/16 00:13:55;;;;;;;14.93;9.00;;;;;;;1.52;100.00;95899.59;1284500;23;20003;-71
2021/03/16 00:14:25;;;;;;;11.73;8.40;;;;;;;1.53;100.00;95906.47;1284400;23;20064;-71
2021/03/16 00:14:55;;;;;;;12.70;9.50;;;;;;;1.54;100.00;95894.94;1284232;23;19996;-71
2021/03/16 00:15:26;;;;;;;11.57;9.00;;;;;;;1.54;100.00;95905.47;1284462;23;20001;-71
2021/03/16 00:15:56;;;;;;;12.80;8.57;;;;;;;1.56;100.00;95897.34;1284357;23;20004;-70
2021/03/16 00:16:27;;;;;;;11.83;8.40;;;;;;;1.58;100.00;95899.75;1284385;23;20004;-71
2021/03/16 00:16:58;;;;;;;13.00;8.75;;;;;;;1.57;100.00;95896.31;1284713;23;19999;-70
2021/03/16 00:17:28;;;;;;;12.30;9.20;;;;;;;1.56;100.00;95913.97;1278095;23;20052;-70
2021/03/16 00:18:01;;;;;;;12.67;8.57;;;;;;;1.56;100.00;95911.31;1278286;23;20047;-70
2021/03/16 00:18:31;;;;;;;11.85;8.25;;;;;;;1.59;100.00;95906.63;1272000;23;19993;-71
2021/03/16 00:19:02;;;;;;;14.37;9.27;;;;;;;1.57;100.00;95912.13;1273350;23;19998;-70
2021/03/16 00:19:32;;;;;;;10.73;8.77;;;;;;;1.56;100.00;95907.88;1284537;23;20450;-71
2021/03/16 00:20:03;;;;;;;14.13;9.60;;;;;;;1.56;100.00;95910.53;1284640;23;20005;-70
2021/03/16 00:20:34;;;;;;;12.65;8.75;;;;;;;1.55;100.00;95909.72;1284935;23;20403;-70
2021/03/16 00:21:04;;;;;;;15.30;9.33;;;;;;;1.54;100.00;95905.47;1284629;23;20099;-71
2021/03/16 00:21:35;;;;;;;12.37;8.70;;;;;;;1.56;100.00;95910.53;1284531;23;20063;-71
2021/03/16 00:22:05;;;;;;;18.10;8.90;;;;;;;1.58;100.00;95916.38;1284446;23;19996;-71
2021/03/16 00:22:36;;;;;;;13.53;9.47;;;;;;;1.56;100.00;95915.78;1284441;23;20023;-71
2021/03/16 00:23:07;;;;;;;13.67;8.80;;;;;;;1.55;100.00;95911.56;1284921;23;20003;-71
2021/03/16 00:23:37;;;;;;;13.45;8.45;;;;;;;1.54;100.00;95909.94;1290769;23;20413;-70
2021/03/16 00:24:08;;;;;;;11.87;9.40;;;;;;;1.53;100.00;95914.38;1290738;23;20000;-71
2021/03/16 00:24:38;;;;;;;12.00;9.23;;;;;;;1.56;100.00;95918.44;1290812;23;20300;-71
2021/03/16 00:25:09;;;;;;;13.33;9.50;;;;;;;1.53;100.00;95906.47;1290537;23;20437;-70
2021/03/16 00:25:40;;;;;;;16.00;9.57;;;;;;;1.55;100.00;95911.56;1284791;23;20001;-70
2021/03/16 00:26:10;;;;;;;11.97;8.73;;;;;;;1.59;100.00;95909.28;1284544;23;19997;-71
2021/03/16 00:26:41;;;;;;;12.60;8.73;;;;;;;1.59;100.00;95911.91;1278351;23;20001;-70
2021/03/16 00:27:11;;;;;;;14.93;9.37;;;;;;;1.57;100.00;95912.13;1265865;23;20028;-71
2021/03/16 00:27:42;;;;;;;14.20;9.53;;;;;;;1.56;100.00;95916.59;1266054;23;20459;-71
2021/03/16 00:28:12;;;;;;;13.37;9.00;;;;;;;1.57;100.00;95912.13;1266344;23;19998;-70
2021/03/16 00:28:43;;;;;;;13.47;9.20;;;;;;;1.59;100.00;95909.28;1272235;23;20402;-71
2021/03/16 00:29:13;;;;;;;11.23;8.83;;;;;;;1.58;100.00;95919.00;1284436;23;19997;-71
2021/03/16 00:29:44;;;;;;;13.83;9.53;;;;;;;1.56;100.00;95913.16;1284584;23;20001;-71
2021/03/16 00:30:14;;;;;;;13.57;9.10;;;;;;;1.58;100.00;95919.00;1284400;23;20019;-70
2021/03/16 00:30:45;;;;;;;12.13;8.83;;;;;;;1.59;100.00;95922.44;1284469;23;20000;-71
2021/03/16 00:31:15;;;;;;;13.90;9.20;;;;;;;1.59;100.00;95918.00;1284625;23;20001;-71
2021/03/16 00:31:45;;;;;;;12.10;8.90;;;;;;;1.62;100.00;95919.41;1278138;23;20008;-70
2021/03/16 00:32:16;;;;;;;17.00;9.93;;;;;;;1.63;100.00;95921.00;1284569;23;20338;-72
2021/03/16 00:32:46;;;;;;;13.47;8.87;;;;;;;1.62;100.00;95916.75;1284533;23;20444;-71
2021/03/16 00:33:17;;;;;;;13.40;9.20;;;;;;;1.65;100.00;95913.72;1284470;23;20039;-71
2021/03/16 00:33:48;;;;;;;15.90;9.63;;;;;;;1.62;100.00;95919.41;1284490;23;20345;-71
2021/03/16 00:34:19;;;;;;;17.05;9.40;;;;;;;1.65;100.00;95921.59;1284652;23;20425;-71
2021/03/16 00:34:49;;;;;;;13.87;9.60;;;;;;;1.62;100.00;95925.47;1284589;23;20028;-71
2021/03/16 00:35:19;;;;;;;13.87;9.70;;;;;;;1.64;100.00;95914.69;1284607;23;19997;-70
2021/03/16 00:35:50;;;;;;;14.67;9.33;;;;;;;1.64;100.00;95912.06;1284647;23;19996;-70
2021/03/16 00:36:20;;;;;;;14.30;9.57;;;;;;;1.62;100.00;95914.94;1284934;23;19997;-71
2021/03/16 00:36:51;;;;;;;11.40;9.37;;;;;;;1.63;100.00;95921.00;1284895;23;19996;-70
2021/03/16 00:37:21;;;;;;;13.80;9.10;;;;;;;1.63;100.00;95921.81;1284865;23;20443;-71
2021/03/16 00:37:52;;;;;;;12.50;9.83;;;;;;;1.66;100.00;95916.13;1284491;23;20415;-70
2021/03/16 00:38:22;;;;;;;15.90;9.27;;;;;;;1.66;100.00;95926.66;1284513;23;20015;-72
2021/03/16 00:38:52;;;;;;;15.67;10.43;;;;;;;1.64;100.00;95918.16;1284002;23;19996;-71
2021/03/16 00:39:23;;;;;;;12.63;9.37;;;;;;;1.64;100.00;95922.59;1284526;23;20063;-70
2021/03/16 00:39:53;;;;;;;13.17;9.67;;;;;;;1.63;100.00;95921.81;1284892;23;20414;-70
2021/03/16 00:40:24;;;;;;;14.33;9.60;;;;;;;1.63;100.00;95929.72;1284958;23;20422;-71
2021/03/16 00:40:54;;;;;;;17.73;10.43;;;;;;;1.60;100.00;95922.25;1284458;23;20004;-70
2021/03/16 00:41:25;;;;;;;12.07;9.17;;;;;;;1.62;100.00;95932.56;1284523;23;20342;-70
2021/03/16 00:41:55;;;;;;;13.43;9.43;;;;;;;1.63;100.00;95921.00;1284311;23;20414;-71
2021/03/16 00:42:25;;;;;;;14.17;9.77;;;;;;;1.65;100.00;95924.25;1284583;23;20357;-70
2021/03/16 00:42:56;;;;;;;16.60;9.83;;;;;;;1.65;100.00;95925.06;1284900;23;20462;-70
2021/03/16 00:43:26;;;;;;;14.80;9.77;;;;;;;1.66;100.00;95925.84;1284824;23;20016;-71
2021/03/16 00:43:57;;;;;;;16.43;10.37;;;;;;;1.66;100.00;95925.84;1284759;23;20008;-71
2021/03/16 00:44:27;;;;;;;16.77;9.57;;;;;;;1.64;100.00;95939.25;1284966;23;20004;-71
2021/03/16 00:44:58;;;;;;;15.13;9.77;;;;;;;1.64;100.00;95925.25;1284760;23;20023;-70
2021/03/16 00:45:28;;;;;;;17.07;9.70;;;;;;;1.66;100.00;95925.84;1284837;23;20000;-70
2021/03/16 00:45:59;;;;;;;19.57;10.50;;;;;;;1.68;100.00;95927.22;1284290;23;19997;-71
2021/03/16 00:46:29;;;;;;;14.83;9.47;;;;;;;1.68;100.00;95932.50;1278299;23;20024;-70
2021/03/16 00:47:00;;;;;;;15.47;10.10;;;;;;;1.68;100.00;95932.50;1277851;23;20001;-71
2021/03/16 00:47:31;;;;;;;14.77;9.27;;;;;;;1.69;100.00;95922.78;1278601;23;19993;-71
2021/03/16 00:48:01;;;;;;;17.83;9.63;;;;;;;1.70;100.00;95932.31;1278541;23;20466;-71
2021/03/16 00:48:31;;;;;;;12.87;9.23;;;;;;;1.72;100.00;95927.63;1284501;23;20059;-71
2021/03/16 00:49:02;;;;;;;13.97;9.30;;;;;;;1.72;100.00;95925.78;1284549;23;20099;-71
2021/03/16 00:49:32;;;;;;;17.30;10.67;;;;;;;1.70;100.00;95927.03;1284527;23;20440;-70
2021/03/16 00:50:04;;;;;;;14.17;10.17;;;;;;;1.67;100.00;95925.63;1284903;23;20001;-71
2021/03/16 00:50:35;;;;;;;17.75;9.80;;;;;;;1.68;100.00;95929.06;1284512;23;20027;-71
2021/03/16 00:51:06;;;;;;;14.53;9.73;;;;;;;1.65;100.00;95924.25;1278281;23;20040;-70
2021/03/16 00:51:36;;;;;;;13.87;9.57;;;;;;;1.68;100.00;95923.78;1278255;23;19997;-72
2021/03/16 00:52:06;;;;;;;13.43;9.50;;;;;;;1.69;100.00;95928.03;1278674;23;19997;-71
2021/03/16 00:52:37;;;;;;;15.60;10.67;;;;;;;1.69;100.00;95920.13;1284463;23;20001;-71
2021/03/16 00:53:07;;;;;;;12.57;9.00;;;;;;;1.69;100.00;95925.41;1284929;23;19996;-71
2021/03/16 00:53:38;;;;;;;15.47;9.67;;;;;;;1.70;100.00;95930.47;1284355;23;20032;-71
2021/03/16 00:54:09;;;;;;;15.03;9.23;;;;;;;1.72;100.00;95933.69;1284466;23;19993;-70
2021/03/16 00:54:39;;;;;;;17.23;10.10;;;;;;;1.73;100.00;95922.13;1284518;23;20000;-71
2021/03/16 00:55:10;;;;;;;13.80;9.57;;;;;;;1.73;100.00;95927.41;1272361;23;20328;-71
2021/03/16 00:55:41;;;;;;;14.98;9.15;;;;;;;1.74;100.00;95921.13;1278233;23;20001;-71
2021/03/16 00:56:11;;;;;;;15.87;9.10;;;;;;;1.78;100.00;95926.75;1278203;23;20383;-71
2021/03/16 00:56:41;;;;;;;14.80;9.33;;;;;;;1.73;100.00;95927.41;1272624;23;20323;-71
2021/03/16 00:57:12;;;;;;;13.10;9.03;;;;;;;1.74;100.00;95930.84;1284556;23;20040;-70
2021/03/16 00:57:42;;;;;;;14.77;8.53;;;;;;;1.75;100.00;95928.00;1284258;23;20359;-71
2021/03/16 00:58:13;;;;;;;14.33;9.53;;;;;;;1.74;100.00;95926.41;1284454;23;20000;-71
2021/03/16 00:58:43;;;;;;;14.20;9.10;;;;;;;1.74;100.00;95930.84;1284448;23;19996;-70
2021/03/16 00:59:14;;;;;;;15.13;9.57;;;;;;;1.74;100.00;95926.41;1278016;23;19997;-71
2021/03/16 00:59:44;;;;;;;12.83;9.43;;;;;;;1.76;100.00;95924.34;1278285;23;20001;-70
2021/03/16 01:00:15;;;;;;;17.57;9.60;;;;;;;1.76;100.00;95920.91;1278356;23;20005;-71
2021/03/16 01:00:45;;;;;;;14.38;9.07;;;;;;;1.78;100.00;95929.38;1284420;23;19989;-70
2021/03/16 01:01:16;;;;;;;14.43;9.10;;;;;;;1.80;100.00;95924.72;1284835;23;20004;-71
2021/03/16 01:01:46;;;;;;;13.00;8.93;;;;;;;1.80;100.00;95930.00;1284817;23;20004;-70
2021/03/16 01:02:18;;;;;;;14.10;9.10;;;;;;;1.79;100.00;95931.81;1284674;23;19997;-71
2021/03/16 01:02:49;;;;;;;14.93;9.15;;;;;;;1.79;100.00;95931.00;1284839;23;19993;-71
2021/03/16 01:03:19;;;;;;;13.07;8.63;;;;;;;1.80;100.00;95930.00;1284647;23;20039;-71
2021/03/16 01:03:50;;;;;;;15.47;9.37;;;;;;;1.79;100.00;95942.38;1284113;23;20004;-71
2021/03/16 01:04:20;;;;;;;15.03;9.33;;;;;;;1.78;100.00;95934.66;1284277;23;20024;-71
2021/03/16 01:04:51;;;;;;;18.53;8.80;;;;;;;1.81;100.00;95937.69;1284493;23;20070;-71
2021/03/16 01:05:21;;;;;;;15.23;9.10;;;;;;;1.82;100.00;95934.00;1284493;23;20028;-70
2021/03/16 01:05:52;;;;;;;15.80;9.13;;;;;;;1.80;100.00;95935.25;1284833;23;20000;-71
2021/03/16 01:06:22;;;;;;;14.60;9.27;;;;;;;1.80;100.00;95943.16;1284294;23;20001;-71
2021/03/16 01:06:53;;;;;;;12.77;8.37;;;;;;;1.80;100.00;95932.63;1284337;23;19989;-70
2021/03/16 01:07:23;;;;;;;13.53;8.63;;;;;;;1.80;100.00;95935.25;1284443;23;20004;-71
2021/03/16 01:07:54;;;;;;;16.60;9.60;;;;;;;1.80;100.00;95936.06;1284492;23;19988;-70
2021/03/16 01:08:24;;;;;;;16.03;9.40;;;;;;;1.79;100.00;95936.25;1284759;23;20000;-71
2021/03/16 01:08:54;;;;;;;15.63;9.47;;;;;;;1.79;100.00;95933.63;1284835;23;20012;-71
2021/03/16 01:09:25;;;;;;;15.90;9.60;;;;;;;1.76;100.00;95931.44;1284294;23;20078;-71
2021/03/16 01:09:55;;;;;;;12.93;9.07;;;;;;;1.78;100.00;95937.28;1284226;23;19999;-70
2021/03/16 01:10:26;;;;;;;13.67;9.60;;;;;;;1.80;100.00;95937.91;1284415;23;20008;-70
2021/03/16 01:10:56;;;;;;;13.83;9.73;;;;;;;1.76;100.00;95942.78;1284410;23;20461;-71
2021/03/16 01:11:27;;;;;;;16.83;8.83;;;;;;;1.76;100.00;95936.72;1284773;23;20004;-71
2021/03/16 01:11:57;;;;;;;15.33;9.80;;;;;;;1.77;100.00;95936.50;1284186;23;20008;-71
2021/03/16 01:12:27;;;;;;;17.60;9.20;;;;;;;1.77;100.00;95941.75;1284124;23;20011;-71
2021/03/16 01:12:58;;;;;;;14.33;9.47;;;;;;;1.76;100.00;95934.88;1284351;23;20036;-71
2021/03/16 01:13:28;;;;;;;16.57;9.03;;;;;;;1.75;100.00;95946.44;1284401;23;19997;-70
2021/03/16 01:13:59;;;;;;;14.50;9.77;;;;;;;1.77;100.00;95939.13;1284881;23;20349;-71
2021/03/16 01:14:29;;;;;;;15.93;10.23;;;;;;;1.77;100.00;95943.59;1284750;23;20071;-70
2021/03/16 01:15:00;;;;;;;15.93;10.17;;;;;;;1.75;100.00;95938.53;1284804;23;19992;-70
2021/03/16 01:15:30;;;;;;;18.80;9.73;;;;;;;1.73;100.00;95943.19;1284882;23;20007;-72
2021/03/16 01:16:01;;;;;;;14.20;9.67;;;;;;;1.73;100.00;95939.75;1284905;23;19996;-71
2021/03/16 01:16:31;;;;;;;14.07;9.40;;;;;;;1.75;100.00;95943.00;1284671;23;19997;-71
2021/03/16 01:17:01;;;;;;;15.93;9.97;;;;;;;1.76;100.00;95937.50;1284121;23;19992;-72
2021/03/16 01:17:32;;;;;;;17.40;10.70;;;;;;;1.73;100.00;95945.84;1284435;23;19996;-71
2021/03/16 01:18:02;;;;;;;16.33;9.57;;;;;;;1.75;100.00;95937.75;1284504;23;20463;-72
2021/03/16 01:18:33;;;;;;;17.60;10.57;;;;;;;1.75;100.00;95943.81;1284508;23;20024;-72
2021/03/16 01:19:03;;;;;;;18.97;10.10;;;;;;;1.76;100.00;95940.16;1284299;23;19995;-72
2021/03/16 01:19:34;;;;;;;16.57;9.70;;;;;;;1.74;100.00;95939.56;1284446;23;20005;-72
2021/03/16 01:20:15;;;;;;;15.47;9.70;;;;;;;1.76;100.00;95945.41;1278280;23;19993;-72
2021/03/16 01:20:46;;;;;;;16.88;10.52;;;;;;;1.73;100.00;95935.28;1278219;23;20453;-71
2021/03/16 01:21:16;;;;;;;16.83;9.47;;;;;;;1.74;100.00;95936.09;1274369;23;20024;-72
2021/03/16 01:21:47;;;;;;;20.20;10.90;;;;;;;1.73;100.00;95942.41;1274388;23;19989;-71
2021/03/16 01:22:17;;;;;;;15.70;9.67;;;;;;;1.70;100.00;95937.56;1278150;23;19989;-72
2021/03/16 01:22:48;;;;;;;14.17;9.83;;;;;;;1.71;100.00;95940.00;1278289;23;20036;-71
2021/03/16 01:23:18;;;;;;;16.37;10.40;;;;;;;1.71;100.00;95941.81;1284351;23;19996;-72
2021/03/16 01:23:48;;;;;;;14.97;9.40;;;;;;;1.71;100.00;95941.81;1284832;23;19989;-71
2021/03/16 01:24:19;;;;;;;24.20;10.43;;;;;;;1.74;100.00;95942.22;1284744;23;19993;-72
2021/03/16 01:24:49;;;;;;;17.93;10.03;;;;;;;1.72;100.00;95940.78;1284812;23;20005;-72
2021/03/16 01:25:20;;;;;;;16.30;9.97;;;;;;;1.73;100.00;95942.41;1284704;23;19997;-72
2021/03/16 01:25:50;;;;;;;15.63;10.00;;;;;;;1.74;100.00;95938.75;1284850;23;19992;-71
2021/03/16 01:26:20;;;;;;;16.37;10.77;;;;;;;1.73;100.00;95945.03;1284842;23;19993;-72
2021/03/16 01:26:51;;;;;;;15.27;10.20;;;;;;;1.71;100.00;95949.72;1284243;23;19993;-72
2021/03/16 01:27:21;;;;;;;15.67;10.43;;;;;;;1.70;100.00;95945.47;1284238;23;20003;-72
2021/03/16 01:27:52;;;;;;;17.73;10.47;;;;;;;1.72;100.00;95948.69;1284402;23;19988;-72
2021/03/16 01:28:22;;;;;;;16.07;10.00;;;;;;;1.74;100.00;95944.00;1284399;23;20001;-72
2021/03/16 01:28:53;;;;;;;16.03;9.63;;;;;;;1.75;100.00;95956.19;1284805;23;20303;-72
2021/03/16 01:29:23;;;;;;;14.37;9.87;;;;;;;1.75;100.00;95943.00;1284802;23;20437;-72
2021/03/16 01:29:53;;;;;;;14.40;8.87;;;;;;;1.74;100.00;95949.28;1284780;23;19995;-70
2021/03/16 01:30:24;;;;;;;17.93;9.93;;;;;;;1.74;100.00;95947.47;1278041;23;20473;-70
2021/03/16 01:30:54;;;;;;;13.47;9.57;;;;;;;1.72;100.00;95946.88;1278127;23;20047;-70
2021/03/16 01:31:25;;;;;;;16.57;9.63;;;;;;;1.76;100.00;95945.41;1278179;23;20351;-70
2021/03/16 01:31:55;;;;;;;16.00;10.37;;;;;;;1.75;100.00;95949.09;1278208;23;20443;-70
2021/03/16 01:32:26;;;;;;;17.33;9.80;;;;;;;1.76;100.00;95942.78;1290542;23;20453;-70
2021/03/16 01:32:56;;;;;;;14.20;9.00;;;;;;;1.78;100.00;95945.19;1284805;23;20467;-70
2021/03/16 01:33:27;;;;;;;18.03;9.37;;;;;;;1.77;100.00;95949.66;1284698;23;20012;-70
2021/03/16 01:33:57;;;;;;;16.87;9.40;;;;;;;1.80;100.00;95943.16;1284743;23;20043;-70
2021/03/16 01:34:28;;;;;;;17.47;8.90;;;;;;;1.81;100.00;95945.59;1284733;23;19992;-70
2021/03/16 01:34:58;;;;;;;19.53;9.27;;;;;;;1.77;100.00;95944.41;1284778;23;20398;-69
2021/03/16 01:35:29;;;;;;;15.20;8.90;;;;;;;1.78;100.00;95947.84;1284690;23;20019;-72
2021/03/16 01:35:59;;;;;;;17.03;9.30;;;;;;;1.77;100.00;95946.22;1284814;23;19996;-72
2021/03/16 01:36:30;;;;;;;14.37;8.83;;;;;;;1.76;100.00;95937.50;1284818;23;20004;-72
2021/03/16 01:37:00;;;;;;;12.93;8.77;;;;;;;1.76;100.00;95939.34;1284685;23;19989;-72
2021/03/16 01:37:31;;;;;;;20.93;10.10;;;;;;;1.78;100.00;95947.84;1284743;23;20402;-72
2021/03/16 01:38:01;;;;;;;16.63;10.53;;;;;;;1.76;100.00;95950.69;1284763;23;20004;-70
2021/03/16 01:38:32;;;;;;;18.13;9.77;;;;;;;1.74;100.00;95944.84;1284735;23;19993;-71
2021/03/16 01:39:03;;;;;;;18.90;9.70;;;;;;;1.75;100.00;95940.38;1284751;23;20051;-71
2021/03/16 01:39:33;;;;;;;13.23;9.07;;;;;;;1.76;100.00;95942.78;1284723;23;19996;-70
2021/03/16 01:40:11;;;;;;;12.70;8.50;;;;;;;1.75;100.00;95943.81;1284281;23;19996;-70
2021/03/16 01:40:41;;;;;;;16.08;9.45;;;;;;;1.73;100.00;95939.75;1278036;23;20513;-70
2021/03/16 01:41:12;;;;;;;16.13;9.80;;;;;;;1.72;100.00;95938.97;1278205;23;20052;-70
2021/03/16 01:41:42;;;;;;;13.97;9.23;;;;;;;1.74;100.00;95941.38;1279631;23;20443;-70
2021/03/16 01:42:13;;;;;;;15.03;9.20;;;;;;;1.74;100.00;95949.28;1284351;23;20055;-70
2021/03/16 01:42:43;;;;;;;21.17;9.37;;;;;;;1.76;100.00;95947.25;1284390;23;20030;-70
2021/03/16 01:43:15;;;;;;;14.10;8.97;;;;;;;1.74;100.00;95954.53;1284769;23;20017;-70
2021/03/16 01:43:46;;;;;;;19.90;9.57;;;;;;;1.72;100.00;95949.50;1278111;23;20423;-70
2021/03/16 01:44:16;;;;;;;17.97;8.93;;;;;;;1.72;100.00;95946.06;1278240;23;20001;-70
2021/03/16 01:44:47;;;;;;;18.50;9.70;;;;;;;1.73;100.00;95950.31;1278025;23;19997;-70
2021/03/16 01:45:17;;;;;;;14.17;8.70;;;;;;;1.71;100.00;95949.72;1278303;23;20001;-70
2021/03/16 01:45:48;;;;;;;19.90;10.27;;;;;;;1.70;100.00;95951.56;1284284;23;20020;-70
2021/03/16 01:46:18;;;;;;;15.30;9.02;;;;;;;1.74;100.00;95949.28;1278356;23;20289;-70
2021/03/16 01:46:49;;;;;;;15.80;9.13;;;;;;;1.73;100.00;95939.75;1278109;23;20064;-70
2021/03/16 01:47:21;;;;;;;12.83;8.33;;;;;;;1.71;100.00;95949.72;1277814;23;20005;-70
2021/03/16 01:47:51;;;;;;;14.55;8.82;;;;;;;1.71;100.00;95950.53;1266313;23;20049;-71
2021/03/16 01:48:35;;;;;;;15.47;9.17;;;;;;;1.71;100.00;95947.09;1272348;23;20490;-70
2021/03/16 01:49:05;;;;;;;21.30;9.60;;;;;;;1.75;100.00;95946.44;1272046;23;20459;-70
2021/03/16 01:49:36;;;;;;;15.27;8.80;;;;;;;1.75;100.00;95956.19;1278120;23;20001;-70
2021/03/16 01:50:10;;;;;;;16.73;8.90;;;;;;;1.73;100.00;95948.47;1271805;23;20001;-70
2021/03/16 01:50:41;;;;;;;15.73;8.93;;;;;;;1.75;100.00;95946.44;1271981;23;20008;-70
2021/03/16 01:51:11;;;;;;;22.33;10.23;;;;;;;1.74;100.00;95954.53;1273004;23;20001;-70
2021/03/16 01:51:42;;;;;;;19.33;9.57;;;;;;;1.72;100.00;95954.78;1279181;23;20001;-70
2021/03/16 01:52:12;;;;;;;15.40;9.50;;;;;;;1.70;100.00;95948.91;1283941;23;20011;-72
2021/03/16 01:52:43;;;;;;;19.10;9.97;;;;;;;1.72;100.00;95946.06;1284320;23;20004;-72
2021/03/16 01:53:14;;;;;;;15.73;9.07;;;;;;;1.74;100.00;95952.75;1278220;23;20008;-72
2021/03/16 01:53:44;;;;;;;15.83;9.07;;;;;;;1.73;100.00;95951.09;1277433;23;20331;-72
2021/03/16 01:54:14;;;;;;;18.97;9.37;;;;;;;1.71;100.00;95947.09;1278125;23;20434;-72
2021/03/16 01:54:45;;;;;;;16.23;8.77;;;;;;;1.73;100.00;95943.19;1278294;23;20473;-72
2021/03/16 01:55:15;;;;;;;16.40;9.17;;;;;;;1.73;100.00;95947.66;1278225;23;20005;-72
2021/03/16 01:55:46;;;;;;;15.87;8.90;;;;;;;1.73;100.00;95951.09;1278072;23;20005;-70
2021/03/16 01:56:16;;;;;;;19.77;9.93;;;;;;;1.72;100.00;95952.13;1272038;23;20001;-72
2021/03/16 01:56:47;;;;;;;18.07;9.63;;;;;;;1.70;100.00;95954.19;1265934;23;20316;-70
2021/03/16 01:57:17;;;;;;;16.20;8.73;;;;;;;1.71;100.00;95955.81;1265859;23;19998;-70
2021/03/16 01:57:48;;;;;;;18.10;9.93;;;;;;;1.71;100.00;95953.16;1272032;23;20374;-70
2021/03/16 01:58:18;;;;;;;15.10;8.63;;;;;;;1.72;100.00;95959.25;1272298;23;20005;-70
2021/03/16 01:58:49;;;;;;;18.87;9.03;;;;;;;1.74;100.00;95958.00;1284362;23;20434;-70
2021/03/16 01:59:19;;;;;;;16.63;9.13;;;;;;;1.73;100.00;95947.66;1277968;23;20055;-70
2021/03/16 01:59:50;;;;;;;18.33;9.40;;;;;;;1.76;100.00;95955.97;1278158;23;20005;-70
2021/03/16 02:00:21;;;;;;;17.13;9.17;;;;;;;1.77;100.00;95956.75;1278142;23;20059;-71
2021/03/16 02:00:51;;;;;;;17.10;9.13;;;;;;;1.74;100.00;95955.38;1272173;23;20457;-71
2021/03/16 02:01:22;;;;;;;15.73;9.63;;;;;;;1.74;100.00;95954.53;1278483;23;19997;-71
2021/03/16 02:01:53;;;;;;;19.17;9.73;;;;;;;1.73;100.00;95942.41;1283747;23;20055;-71
2021/03/16 02:02:23;;;;;;;19.80;9.20;;;;;;;1.71;100.00;95952.34;1284339;23;20342;-70
2021/03/16 02:02:54;;;;;;;21.80;9.90;;;;;;;1.73;100.00;95950.31;1284348;23;20040;-70
2021/03/16 02:03:25;;;;;;;17.63;9.80;;;;;;;1.70;100.00;95954.19;1284395;23;19997;-70
2021/03/16 02:03:55;;;;;;;19.20;9.03;;;;;;;1.73;100.00;95952.94;1284351;23;20002;-71
2021/03/16 02:04:25;;;;;;;15.03;8.60;;;;;;;1.71;100.00;95953.16;1284322;23;20211;-70
2021/03/16 02:04:56;;;;;;;16.00;8.77;;;;;;;1.72;100.00;95957.41;1290428;23;19995;-70
2021/03/16 02:05:26;;;;;;;18.77;8.90;;;;;;;1.71;100.00;95947.91;1290609;23;19992;-70
2021/03/16 02:05:58;;;;;;;17.38;9.10;;;;;;;1.69;100.00;95960.50;1290641;23;19991;-70
2021/03/16 02:06:37;;;;;;;17.60;9.20;;;;;;;1.70;100.00;95956.03;1284257;23;19984;-70
2021/03/16 02:07:26;;;;;;;15.68;8.50;;;;;;;1.73;100.00;95958.22;1284195;23;19999;-71
2021/03/16 02:08:17;;;;;;;18.98;9.98;;;;;;;1.73;100.00;95959.00;1284319;23;20004;-70
2021/03/16 02:09:13;;;;;;;18.23;8.98;;;;;;;1.73;100.00;95945.03;1284507;23;20011;-70
2021/03/16 02:09:59;;;;;;;20.95;9.13;;;;;;;1.71;100.00;95955.81;1284417;23;20082;-70
2021/03/16 02:10:38;;;;;;;12.52;8.57;;;;;;;1.72;100.00;95956.59;1284312;23;20008;-71
2021/03/16 02:11:09;;;;;;;19.27;9.18;;;;;;;1.72;100.00;95956.59;1284367;23;20436;-70
2021/03/16 02:11:45;;;;;;;15.77;8.47;;;;;;;1.73;100.00;95960.84;1284322;23;20000;-69
2021/03/16 02:12:21;;;;;;;18.65;9.50;;;;;;;1.72;100.00;95956.59;1289900;23;20004;-69
2021/03/16 02:13:19;;;;;;;18.50;8.82;;;;;;;1.72;100.00;95967.13;1284389;23;20000;-70
2021/03/16 02:14:01;;;;;;;18.80;10.05;;;;;;;1.70;100.00;95959.47;1284158;23;20003;-71
2021/03/16 02:14:44;;;;;;;12.02;8.63;;;;;;;1.68;100.00;95963.31;1284638;23;20467;-70
2021/03/16 02:15:16;;;;;;;17.23;8.73;;;;;;;1.68;100.00;95963.31;1284275;23;20031;-70
2021/03/16 02:15:48;;;;;;;14.73;8.57;;;;;;;1.68;100.00;95965.94;1284344;23;20450;-70
2021/03/16 02:16:21;;;;;;;19.10;9.43;;;;;;;1.68;100.00;95969.38;1271838;23;20001;-69
2021/03/16 02:17:12;;;;;;;18.10;9.48;;;;;;;1.68;100.00;95969.38;1267029;23;20002;-70
2021/03/16 02:17:42;;;;;;;18.95;9.85;;;;;;;1.74;100.00;95967.72;1271984;23;20012;-71
2021/03/16 02:18:18;;;;;;;16.03;8.93;;;;;;;1.74;100.00;95965.91;1275362;23;20442;-71
2021/03/16 02:18:50;;;;;;;20.45;9.63;;;;;;;1.73;100.00;95968.75;1270909;23;20001;-70
2021/03/16 02:19:45;;;;;;;19.45;9.30;;;;;;;1.72;100.00;95967.94;1265952;23;20001;-70
2021/03/16 02:20:31;;;;;;;15.27;9.43;;;;;;;1.71;100.00;95971.59;1253508;23;20425;-71
2021/03/16 02:21:22;;;;;;;18.08;9.02;;;;;;;1.70;100.00;95964.72;1266724;23;20014;-71
2021/03/16 02:21:52;;;;;;;16.85;8.70;;;;;;;1.71;100.00;95968.16;1284408;23;20029;-70
2021/03/16 02:22:23;;;;;;;18.83;9.47;;;;;;;1.68;100.00;95971.22;1271873;23;20021;-70
2021/03/16 02:22:53;;;;;;;18.93;9.50;;;;;;;1.65;100.00;95969.84;1265986;23;20040;-70
2021/03/16 02:24:00;;;;;;;17.10;9.07;;;;;;;1.67;100.00;95964.34;1253991;23;20003;-70
2021/03/16 02:24:41;;;;;;;15.70;8.93;;;;;;;1.68;100.00;95965.94;1260642;23;20088;-70
2021/03/16 02:25:32;;;;;;;19.10;9.57;;;;;;;1.69;100.00;95964.91;1272830;23;20042;-70
2021/03/16 02:26:16;;;;;;;16.27;9.10;;;;;;;1.66;100.00;95966.16;1284330;23;20083;-71
2021/03/16 02:27:01;;;;;;;18.75;9.45;;;;;;;1.64;100.00;95967.41;1284310;23;20008;-70
2021/03/16 02:28:01;;;;;;;19.10;9.98;;;;;;;1.68;100.00;95968.59;1284694;23;20003;-70
2021/03/16 02:29:01;;;;;;;20.23;9.40;;;;;;;1.64;100.00;95965.59;1265518;23;20006;-70